Aérodrome :
LOGIN :

S'inscrire | Disclaimer

   EN    FR    IT 

 










Légende :    VFR   VFR Marginal   IFR   IFR Intensif   IFR Très Intensif
Visi : 
Plafond : 
>= 8 km
>= 3000ft
5 à 8 km
1000 à 3000 ft
1500m à 5 km
500 à 1000 ft
800 à 1500m
200 à 500 ft
< 800m
< 200 ft
Symboles :   Orages  Brouillard  Fortes neiges  Fortes précipitations  Vent > 20 kt
SIGMETs :   Divers  Orages  Givrage  Turbulence  Onde Orograph.  Cendres Volcan.






- Altitude de l'aérodrome : 32 ft
- Code IATA : NRK


ESSP - Norrköping

DERNIER METAR :
  • 061350Z 08005KT 9999 BKN007 M12/M13 Q1024

METARs EXPIRÉS :
  • 061320Z 06006KT 9999 SCT007 M11/M12 Q1024
  • 061250Z 07005KT 9999 SCT004 BKN006 M08/M09 Q1024
  • 061220Z 05005KT 9999 SCT004 OVC006 M08/M09 Q1024
  • 061150Z 07005KT 9999 BKN006 M07/M08 Q1024
  • 061120Z 11003KT 9999 BKN006 M07/M08 Q1024
  • 061050Z 07003KT 9999 OVC006 M07/M08 Q1024
  • 061020Z VRB02KT 9999 OVC005 M07/M08 Q1024
  • 060950Z 12002KT 9999 OVC006 M07/M08 Q1024
  • 060920Z 11003KT 9999 OVC006 M08/M09 Q1024

TAF TAF ESSP
Valide du 06 à 12h jusqu'au 06 à 16h UTC


061130Z 0612/0616 11003KT 9999 FEW006 BKN012
PROB40 0612/0616 OVC006



MET'MAP, la Météo Aéronautique d'un coup d'oeil ! - Copyright ORBIFLY Décembre 2007 - Disclaimer

ORBIFLY MET'MAP TEAM :

Programmation & Développement : Alexandra Zaïnal
Sur une idée originale de : Baudouin d'Aumeries
Soutien technique & logistique : Manuel Goepfert
Assistance : Marc-Olivier Méhu




SOURCES & CREDITS :

   NOAA